Minot, ND (58701)

1:42 PM CST on January 16, 2017 (GMT -0600)
Edgeview Estates | | Change Station

Elev 1752 ft 48.21 °N, 101.33 °W | Updated 11 minutes ago

Clear
Clear
28.3 °F
Feels Like 20 °F
N
8.0
Wind Variable Wind from NNE
Gusts 10.0 mph

Today
High -- | Low -- °F
--% Chance of Precip.
Yesterday
High -- | Low -- °F
Precip. -- in
Pressure 30.13 in
Visibility 10.0 miles
Clouds Clear
Windchill 20 °F
Dew Point 20 °F
Humidity 71%
Rainfall 0.00 in
Snow Depth Not available.
8:29 AM 5:20 PM
Waning Gibbous, 79% visible
METAR KMOT 161854Z 28008KT 10SM CLR M03/M07 A3004 RMK AO2 SLP203 T10281067
Pressure 30.13 in
Visibility 10.0 miles
Clouds Clear
Windchill 20 °F
Dew Point 20 °F
Humidity 71%
Rainfall 0.00 in
Snow Depth Not available.
8:29 AM 5:20 PM
Waning Gibbous, 79% visible
METAR KMOT 161854Z 28008KT 10SM CLR M03/M07 A3004 RMK AO2 SLP203 T10281067

Get Your Daily Forecast Email!

Thanks for signing up!

Be on the lookout for a verification email in your inbox.

You'll start receiving the daily forecast at 8 AM.

×

10-Day Weather Forecast

Almanac

Astronomy

Jan. 16, 2017 Rise Set
Actual Time
Civil Twilight
Nautical Twilight
Astronomical Twilight
Moon
Length of Visible Light
Length of Day
Tomorrow will be .
, % of the Moon is Illuminated

Today's Extremes

State Highs State Lows

Community

WunderPhotos

Upload Photos

1,962,540 photos uploaded!

WunderBlog® & News

Nearby

Air Quality

  Air Quality AQ Index Pollutant
Not available.

Snow Depth

Station Depth Elevation

Earthquake Activity

City Distance Mag. Time & Date
Minimum magnitude displayed is 2.5.

Coastal Water Temperatures

Place Temperature

Stations

Nearby Weather Stations

Station Location Temp. Windchill Dew Point Humidity Wind Precip. Elev Updated Type
                   

Watches & Warnings

There are currently no watches in effect.